Time;durP1;ratioP1;P1;durP2;ratioP2;P2;SDS_P1;SDS_P2;PMS_P1;PMS_P2;Temp;Humidity;BMP_temperature;BMP_pressure;BME280_temperature;BME280_humidity;BME280_pressure;Samples;Min_cycle;Max_cycle;Signal;HPM_P1;HPM_P2
2021/09/13 00:00:23;;;;;;;;;2.50;2.50;;;;;;;;2779485;51;8762;-65
2021/09/13 00:02:49;;;;;;;;;4.00;4.00;;;;;;;;2778976;51;8751;-65
2021/09/13 00:05:14;;;;;;;;;2.00;2.00;;;;;;;;2779262;51;8754;-64
2021/09/13 00:07:40;;;;;;;;;3.75;3.00;;;;;;;;2779400;51;8885;-65
2021/09/13 00:10:06;;;;;;;;;1.50;1.50;;;;;;;;2778944;51;8780;-64
2021/09/13 00:12:32;;;;;;;;;9.40;4.20;;;;;;;;2779135;51;9366;-64
2021/09/13 00:14:57;;;;;;;;;3.00;3.00;;;;;;;;2779316;51;8883;-63
2021/09/13 00:17:23;;;;;;;;;2.00;2.00;;;;;;;;2779097;51;8860;-65
2021/09/13 00:19:48;;;;;;;;;2.25;2.25;;;;;;;;2779296;51;8798;-65
2021/09/13 00:22:14;;;;;;;;;6.25;3.75;;;;;;;;2779262;51;8766;-65
2021/09/13 00:24:40;;;;;;;;;2.50;2.50;;;;;;;;2779243;51;8767;-64
2021/09/13 00:27:05;;;;;;;;;8.25;4.00;;;;;;;;2779485;51;8779;-64
2021/09/13 00:29:31;;;;;;;;;3.00;3.00;;;;;;;;2779032;51;8786;-65
2021/09/13 00:31:56;;;;;;;;;2.00;2.00;;;;;;;;2779319;51;8774;-65
2021/09/13 00:34:22;;;;;;;;;4.00;2.00;;;;;;;;2779069;51;8809;-64
2021/09/13 00:36:48;;;;;;;;;2.50;2.50;;;;;;;;2779039;51;8778;-66
2021/09/13 00:39:13;;;;;;;;;3.00;3.00;;;;;;;;2779226;51;8893;-65
2021/09/13 00:41:39;;;;;;;;;4.00;3.50;;;;;;;;2779249;51;8807;-65
2021/09/13 00:44:05;;;;;;;;;3.25;2.00;;;;;;;;2779199;51;8876;-65
2021/09/13 00:46:30;;;;;;;;;2.75;2.75;;;;;;;;2779113;51;8821;-64
2021/09/13 00:48:56;;;;;;;;;4.25;2.00;;;;;;;;2779094;51;8858;-65
2021/09/13 00:51:22;;;;;;;;;4.00;3.00;;;;;;;;2779119;51;8750;-65
2021/09/13 00:53:48;;;;;;;;;2.00;2.00;;;;;;;;2778920;51;9468;-65
2021/09/13 00:56:13;;;;;;;;;3.60;3.00;;;;;;;;2779099;51;8851;-64
2021/09/13 00:58:39;;;;;;;;;2.75;2.75;;;;;;;;2778908;51;8770;-64
2021/09/13 01:01:05;;;;;;;;;7.20;3.20;;;;;;;;2779325;51;8782;-65
2021/09/13 01:03:33;;;;;;;;;5.60;2.60;;;;;;;;2778830;51;8901;-65
2021/09/13 01:05:59;;;;;;;;;2.20;2.20;;;;;;;;2779030;51;8759;-65
2021/09/13 01:08:25;;;;;;;;;5.75;3.00;;;;;;;;2779349;51;8856;-65
2021/09/13 01:10:52;;;;;;;;;5.60;3.80;;;;;;;;2779040;51;8779;-65
2021/09/13 01:13:18;;;;;;;;;5.80;4.60;;;;;;;;2778975;51;9417;-66
2021/09/13 01:15:43;;;;;;;;;7.75;4.00;;;;;;;;2779327;51;8771;-64
2021/09/13 01:18:09;;;;;;;;;1.00;1.00;;;;;;;;2780201;51;8774;-64
2021/09/13 01:20:35;;;;;;;;;5.75;4.00;;;;;;;;2779919;51;8779;-64
2021/09/13 01:23:08;;;;;;;;;3.00;2.50;;;;;;;;2779748;51;8770;-64
2021/09/13 01:25:37;;;;;;;;;4.00;2.80;;;;;;;;2780174;51;8759;-64
2021/09/13 01:28:03;;;;;;;;;6.60;5.00;;;;;;;;2779677;51;8774;-64
2021/09/13 01:30:30;;;;;;;;;3.00;3.00;;;;;;;;2779703;51;8766;-65
2021/09/13 01:32:56;;;;;;;;;3.25;3.25;;;;;;;;2779916;51;8781;-65
2021/09/13 01:35:22;;;;;;;;;3.00;3.00;;;;;;;;2779728;51;8778;-64
2021/09/13 01:37:47;;;;;;;;;2.50;2.50;;;;;;;;2779730;51;8767;-65
2021/09/13 01:40:13;;;;;;;;;3.75;3.75;;;;;;;;2779863;51;9412;-65
2021/09/13 01:42:38;;;;;;;;;1.75;1.75;;;;;;;;2779854;51;8763;-64
2021/09/13 01:45:04;;;;;;;;;3.00;2.00;;;;;;;;2779644;51;8766;-65
2021/09/13 01:47:30;;;;;;;;;5.00;3.60;;;;;;;;2779650;51;8786;-63
2021/09/13 01:49:56;;;;;;;;;3.75;2.75;;;;;;;;2779791;51;8857;-64
2021/09/13 01:52:21;;;;;;;;;5.50;5.50;;;;;;;;2779977;51;8763;-63
2021/09/13 01:54:47;;;;;;;;;2.75;2.75;;;;;;;;2779703;51;8819;-64
2021/09/13 01:57:12;;;;;;;;;3.50;3.00;;;;;;;;2779843;51;8770;-65
2021/09/13 01:59:38;;;;;;;;;3.75;3.75;;;;;;;;2779845;51;8793;-65
2021/09/13 02:02:04;;;;;;;;;6.75;4.25;;;;;;;;2780103;51;8881;-64
2021/09/13 02:04:29;;;;;;;;;1.50;1.50;;;;;;;;2779629;51;8865;-63
2021/09/13 02:06:55;;;;;;;;;3.50;2.75;;;;;;;;2780135;51;8778;-64
2021/09/13 02:09:21;;;;;;;;;4.00;3.50;;;;;;;;2779619;51;8774;-65
2021/09/13 02:11:46;;;;;;;;;3.25;3.00;;;;;;;;2779737;51;8787;-65
2021/09/13 02:14:12;;;;;;;;;4.50;3.00;;;;;;;;2779705;51;8778;-65
2021/09/13 02:16:38;;;;;;;;;2.50;2.50;;;;;;;;2780278;51;9446;-65
2021/09/13 02:19:03;;;;;;;;;3.50;3.50;;;;;;;;2779979;51;8759;-66
2021/09/13 02:21:29;;;;;;;;;4.00;3.00;;;;;;;;2779574;51;8775;-65
2021/09/13 02:23:55;;;;;;;;;3.75;3.75;;;;;;;;2779909;51;8755;-65
2021/09/13 02:26:20;;;;;;;;;4.00;3.75;;;;;;;;2779930;51;8898;-64
2021/09/13 02:28:46;;;;;;;;;4.50;3.50;;;;;;;;2779304;51;8769;-65
2021/09/13 02:31:11;;;;;;;;;4.00;3.25;;;;;;;;2779823;51;8778;-63
2021/09/13 02:33:37;;;;;;;;;5.00;4.00;;;;;;;;2779746;51;8770;-64
2021/09/13 02:36:03;;;;;;;;;4.00;3.50;;;;;;;;2779793;51;8766;-65
2021/09/13 02:38:28;;;;;;;;;3.25;3.00;;;;;;;;2779799;51;8879;-64
2021/09/13 02:40:54;;;;;;;;;5.00;3.75;;;;;;;;2779581;51;8775;-64
2021/09/13 02:43:20;;;;;;;;;4.75;3.00;;;;;;;;2779477;51;8762;-64
2021/09/13 02:45:45;;;;;;;;;6.00;3.00;;;;;;;;2779474;51;8859;-64
2021/09/13 02:48:11;;;;;;;;;7.50;5.00;;;;;;;;2779634;51;8770;-64
2021/09/13 02:50:37;;;;;;;;;4.75;4.75;;;;;;;;2779712;51;9523;-64
2021/09/13 02:53:03;;;;;;;;;6.00;4.00;;;;;;;;2779454;51;8774;-64
2021/09/13 02:55:28;;;;;;;;;3.80;3.80;;;;;;;;2779419;51;8775;-65
2021/09/13 02:57:54;;;;;;;;;7.00;5.00;;;;;;;;2779444;51;8770;-65
2021/09/13 03:00:20;;;;;;;;;14.67;11.33;;;;;;;;2779835;51;8759;-65
2021/09/13 03:02:46;;;;;;;;;10.00;8.50;;;;;;;;2779489;51;8785;-65
2021/09/13 03:05:12;;;;;;;;;7.25;4.75;;;;;;;;2779454;51;8786;-65
2021/09/13 03:07:37;;;;;;;;;9.00;5.00;;;;;;;;2779473;51;8785;-65
2021/09/13 03:10:04;;;;;;;;;8.50;6.00;;;;;;;;2779664;51;8871;-65
2021/09/13 03:12:33;;;;;;;;;3.20;3.20;;;;;;;;2779667;51;8763;-64
2021/09/13 03:15:00;;;;;;;;;4.40;4.40;;;;;;;;2779543;51;8802;-64
2021/09/13 03:17:26;;;;;;;;;8.25;7.75;;;;;;;;2779267;51;8906;-65
2021/09/13 03:19:51;;;;;;;;;4.50;3.00;;;;;;;;2779587;51;9407;-66
2021/09/13 03:22:17;;;;;;;;;5.00;3.00;;;;;;;;2779305;51;8767;-64
2021/09/13 03:24:42;;;;;;;;;7.00;4.00;;;;;;;;2779425;51;9478;-66
2021/09/13 03:27:08;;;;;;;;;7.67;7.33;;;;;;;;2779608;51;8767;-65
2021/09/13 03:29:34;;;;;;;;;2.75;2.75;;;;;;;;2779422;51;8774;-66
2021/09/13 03:31:59;;;;;;;;;5.50;4.00;;;;;;;;2779444;51;8778;-64
2021/09/13 03:34:25;;;;;;;;;3.75;3.75;;;;;;;;2779443;51;8790;-64
2021/09/13 03:36:50;;;;;;;;;3.50;2.25;;;;;;;;2779417;51;8770;-65
2021/09/13 03:39:16;;;;;;;;;7.25;4.00;;;;;;;;2778976;51;8767;-65
2021/09/13 03:41:42;;;;;;;;;1.00;1.00;;;;;;;;2779363;51;8742;-63
2021/09/13 03:44:07;;;;;;;;;3.00;2.00;;;;;;;;2779209;51;8794;-64
2021/09/13 03:46:33;;;;;;;;;4.50;3.50;;;;;;;;2779272;51;8763;-65
2021/09/13 03:48:58;;;;;;;;;4.00;4.00;;;;;;;;2779422;51;8793;-65
2021/09/13 03:51:24;;;;;;;;;9.25;4.75;;;;;;;;2779107;51;8767;-65
2021/09/13 03:53:50;;;;;;;;;4.00;4.00;;;;;;;;2779123;51;8790;-65
2021/09/13 03:56:15;;;;;;;;;3.00;1.00;;;;;;;;2779205;51;8783;-65
2021/09/13 03:58:41;;;;;;;;;5.00;3.25;;;;;;;;2779532;51;8790;-66
2021/09/13 04:01:07;;;;;;;;;7.50;4.00;;;;;;;;2779279;51;8789;-67
2021/09/13 04:03:42;;;;;;;;;4.25;2.25;;;;;;;;2779211;51;8799;-67
2021/09/13 04:06:17;;;;;;;;;3.60;3.60;;;;;;;;2779546;51;9392;-64
2021/09/13 04:09:42;;;;;;;;;4.80;3.40;;;;;;;;2779497;51;8797;-65
2021/09/13 04:11:47;;;;;;;;;3.00;3.00;;;;;;;;2776936;51;8770;-64
2021/09/13 04:14:14;;;;;;;;;8.20;5.00;;;;;;;;2779329;51;8826;-64
2021/09/13 04:16:39;;;;;;;;;3.80;3.40;;;;;;;;2779268;51;8825;-66
2021/09/13 04:19:05;;;;;;;;;3.25;2.00;;;;;;;;2779113;51;8793;-66
2021/09/13 04:21:30;;;;;;;;;4.50;3.50;;;;;;;;2778976;51;8807;-66
2021/09/13 04:23:56;;;;;;;;;3.25;3.25;;;;;;;;2779174;51;8759;-66
2021/09/13 04:26:21;;;;;;;;;2.50;2.50;;;;;;;;2779001;51;8867;-64
2021/09/13 04:28:47;;;;;;;;;5.00;3.00;;;;;;;;2779006;51;8774;-66
2021/09/13 04:31:13;;;;;;;;;3.50;3.25;;;;;;;;2779309;51;8790;-67
2021/09/13 04:33:38;;;;;;;;;5.50;3.00;;;;;;;;2779142;51;8787;-65
2021/09/13 04:36:04;;;;;;;;;5.00;4.00;;;;;;;;2778989;51;8786;-66
2021/09/13 04:38:29;;;;;;;;;6.25;3.00;;;;;;;;2778935;51;8883;-65
2021/09/13 04:40:55;;;;;;;;;7.50;5.50;;;;;;;;2778840;51;8767;-64
2021/09/13 04:43:21;;;;;;;;;4.75;3.00;;;;;;;;2779122;51;8770;-66
2021/09/13 04:45:46;;;;;;;;;4.75;3.00;;;;;;;;2778892;51;8844;-65
2021/09/13 04:48:12;;;;;;;;;5.00;3.00;;;;;;;;2779038;51;8774;-65
2021/09/13 04:50:37;;;;;;;;;5.50;4.25;;;;;;;;2778877;51;9490;-65
2021/09/13 04:53:03;;;;;;;;;2.50;2.50;;;;;;;;2778822;51;8788;-65
2021/09/13 04:55:29;;;;;;;;;3.00;2.00;;;;;;;;2778491;51;9596;-65
2021/09/13 04:57:54;;;;;;;;;4.50;3.75;;;;;;;;2778980;51;8777;-65
2021/09/13 05:00:21;;;;;;;;;7.00;4.25;;;;;;;;2779331;51;8747;-66
2021/09/13 05:02:47;;;;;;;;;4.40;3.20;;;;;;;;2779208;51;8751;-64
2021/09/13 05:05:13;;;;;;;;;5.00;5.00;;;;;;;;2778896;51;8759;-62
2021/09/13 05:07:39;;;;;;;;;5.25;3.50;;;;;;;;2779039;51;9467;-64
2021/09/13 05:10:05;;;;;;;;;4.50;4.00;;;;;;;;2779298;51;8782;-74
2021/09/13 05:12:31;;;;;;;;;5.00;3.40;;;;;;;;2778940;51;8770;-72
2021/09/13 05:14:57;;;;;;;;;5.75;5.50;;;;;;;;2778828;51;8905;-71
2021/09/13 05:17:22;;;;;;;;;6.60;4.40;;;;;;;;2778904;51;8892;-73
2021/09/13 05:19:48;;;;;;;;;4.00;4.00;;;;;;;;2779090;51;8868;-73
2021/09/13 05:22:14;;;;;;;;;5.75;4.75;;;;;;;;2778906;51;8795;-73
2021/09/13 05:24:39;;;;;;;;;5.25;4.50;;;;;;;;2779012;51;8772;-72
2021/09/13 05:27:05;;;;;;;;;2.75;2.75;;;;;;;;2778723;51;8858;-71
2021/09/13 05:29:30;;;;;;;;;6.25;4.75;;;;;;;;2778706;51;8759;-72
2021/09/13 05:31:56;;;;;;;;;3.25;3.25;;;;;;;;2778776;51;8805;-73
2021/09/13 05:34:22;;;;;;;;;4.25;4.25;;;;;;;;2778911;51;8774;-74
2021/09/13 05:36:47;;;;;;;;;5.00;4.25;;;;;;;;2778877;51;8782;-73
2021/09/13 05:39:13;;;;;;;;;5.75;3.00;;;;;;;;2778935;51;8770;-73
2021/09/13 05:41:38;;;;;;;;;5.25;5.25;;;;;;;;2778920;51;8782;-72
2021/09/13 05:44:05;;;;;;;;;3.00;3.00;;;;;;;;2778823;51;8759;-72
2021/09/13 05:46:31;;;;;;;;;5.80;5.20;;;;;;;;2778861;51;8864;-73
2021/09/13 05:48:57;;;;;;;;;7.00;7.00;;;;;;;;2778212;51;8775;-73
2021/09/13 05:51:22;;;;;;;;;6.75;5.50;;;;;;;;2778269;51;8763;-72
2021/09/13 05:53:48;;;;;;;;;6.75;6.00;;;;;;;;2778774;51;8817;-72
2021/09/13 05:56:14;;;;;;;;;6.75;6.75;;;;;;;;2778833;51;8872;-73
2021/09/13 05:58:39;;;;;;;;;8.25;6.50;;;;;;;;2778806;51;8897;-72
2021/09/13 06:01:05;;;;;;;;;7.50;7.25;;;;;;;;2779004;51;11540;-73
2021/09/13 06:03:31;;;;;;;;;4.40;4.40;;;;;;;;2779937;51;8755;-72
2021/09/13 06:05:57;;;;;;;;;7.25;4.50;;;;;;;;2779557;51;8774;-72
2021/09/13 06:08:22;;;;;;;;;8.25;8.00;;;;;;;;2779942;51;8862;-73
2021/09/13 06:10:48;;;;;;;;;6.50;6.00;;;;;;;;2779843;51;8889;-72
2021/09/13 06:13:14;;;;;;;;;9.00;7.25;;;;;;;;2779573;51;8770;-72
2021/09/13 06:15:40;;;;;;;;;7.40;6.00;;;;;;;;2779532;51;8834;-72
2021/09/13 06:18:06;;;;;;;;;7.20;5.00;;;;;;;;2779561;51;8770;-73
2021/09/13 06:20:32;;;;;;;;;8.20;6.00;;;;;;;;2779593;51;8788;-72
2021/09/13 06:22:57;;;;;;;;;6.25;6.25;;;;;;;;2779910;51;8767;-72
2021/09/13 06:25:23;;;;;;;;;5.00;4.80;;;;;;;;2779303;51;8783;-71
2021/09/13 06:27:49;;;;;;;;;5.00;5.00;;;;;;;;2779718;51;8762;-71
2021/09/13 06:30:14;;;;;;;;;0.75;0.00;;;;;;;;2780017;51;9548;-74
2021/09/13 06:32:40;;;;;;;;;4.75;4.25;;;;;;;;2779729;51;9387;-72
2021/09/13 06:35:06;;;;;;;;;4.50;3.00;;;;;;;;2779667;51;8876;-72
2021/09/13 06:37:32;;;;;;;;;5.00;5.00;;;;;;;;2779678;51;9431;-72
2021/09/13 06:39:58;;;;;;;;;3.25;2.50;;;;;;;;2779467;51;11426;-71
2021/09/13 06:42:30;;;;;;;;;4.20;4.20;;;;;;;;2780037;51;8770;-74
2021/09/13 06:44:56;;;;;;;;;3.80;3.80;;;;;;;;2779985;51;8762;-72
2021/09/13 06:49:56;;;;;;;;;4.60;3.80;;;;;;;;2779623;51;8747;-72
2021/09/13 06:52:22;;;;;;;;;4.00;4.00;;;;;;;;2779798;51;8881;-72
2021/09/13 06:54:48;;;;;;;;;3.75;3.25;;;;;;;;2779671;51;8802;-71
2021/09/13 06:57:13;;;;;;;;;4.50;4.50;;;;;;;;2779455;51;9011;-72
2021/09/13 06:59:40;;;;;;;;;1.75;1.75;;;;;;;;2779485;51;8880;-71
2021/09/13 07:02:07;;;;;;;;;5.00;3.80;;;;;;;;2779691;51;8838;-70
2021/09/13 07:04:32;;;;;;;;;3.80;2.20;;;;;;;;2779462;51;8774;-71
2021/09/13 07:06:58;;;;;;;;;1.25;1.25;;;;;;;;2779581;51;9400;-69
2021/09/13 07:09:24;;;;;;;;;4.00;4.00;;;;;;;;2779388;51;8770;-74
2021/09/13 07:11:49;;;;;;;;;5.25;3.50;;;;;;;;2779837;51;9400;-70
2021/09/13 07:14:15;;;;;;;;;3.75;3.75;;;;;;;;2779507;51;8783;-69
2021/09/13 07:16:41;;;;;;;;;2.00;2.00;;;;;;;;2779395;51;9384;-70
2021/09/13 07:19:06;;;;;;;;;4.75;3.75;;;;;;;;2779321;51;8884;-68
2021/09/13 07:21:33;;;;;;;;;4.75;3.75;;;;;;;;2780559;51;8786;-69
2021/09/13 07:24:01;;;;;;;;;4.00;3.20;;;;;;;;2782358;51;9182;-69
2021/09/13 07:26:32;;;;;;;;;2.80;2.80;;;;;;;;2779342;51;9497;-69
2021/09/13 07:28:59;;;;;;;;;4.80;4.80;;;;;;;;2776252;51;8759;-68
2021/09/13 07:31:33;;;;;;;;;5.20;4.40;;;;;;;;2773272;51;8847;-71
2021/09/13 07:33:59;;;;;;;;;5.00;3.40;;;;;;;;2772825;51;8782;-67
2021/09/13 07:36:25;;;;;;;;;6.00;4.00;;;;;;;;2773946;51;8918;-69
2021/09/13 07:38:50;;;;;;;;;1.00;1.00;;;;;;;;2779517;51;8890;-70
2021/09/13 07:41:16;;;;;;;;;7.00;6.00;;;;;;;;2779696;51;8870;-68
2021/09/13 07:43:41;;;;;;;;;5.25;3.25;;;;;;;;2779603;51;8756;-68
2021/09/13 07:46:07;;;;;;;;;5.00;5.00;;;;;;;;2779542;51;8790;-67
2021/09/13 07:48:33;;;;;;;;;5.00;4.00;;;;;;;;2779751;51;8854;-76
2021/09/13 07:50:59;;;;;;;;;6.00;6.00;;;;;;;;2778788;51;8765;-71
2021/09/13 07:53:24;;;;;;;;;6.33;6.00;;;;;;;;2778200;51;11397;-70
2021/09/13 07:55:50;;;;;;;;;4.67;4.67;;;;;;;;2770095;51;10693;-80
2021/09/13 07:58:16;;;;;;;;;5.00;3.33;;;;;;;;2767500;51;8777;-73
2021/09/13 08:00:41;;;;;;;;;6.00;5.67;;;;;;;;2767326;51;8769;-72
2021/09/13 08:03:07;;;;;;;;;5.33;5.33;;;;;;;;2767438;51;8773;-71
2021/09/13 08:05:32;;;;;;;;;4.33;3.33;;;;;;;;2767134;51;8879;-70
2021/09/13 08:07:58;;;;;;;;;4.00;4.00;;;;;;;;2767157;51;8902;-70
2021/09/13 08:10:24;;;;;;;;;2.00;2.00;;;;;;;;2767125;51;8875;-71
2021/09/13 08:12:50;;;;;;;;;4.67;4.00;;;;;;;;2766519;51;9778;-71
2021/09/13 08:15:16;;;;;;;;;4.00;4.00;;;;;;;;2767204;51;8797;-69
2021/09/13 08:17:41;;;;;;;;;5.00;4.00;;;;;;;;2767560;51;8761;-68
2021/09/13 08:20:07;;;;;;;;;4.67;3.33;;;;;;;;2767279;51;11452;-71
2021/09/13 08:22:33;;;;;;;;;3.67;3.67;;;;;;;;2767188;51;8777;-75
2021/09/13 08:24:58;;;;;;;;;5.67;4.67;;;;;;;;2767096;51;8792;-72
2021/09/13 08:27:24;;;;;;;;;5.67;4.00;;;;;;;;2767119;51;8778;-71
2021/09/13 08:29:50;;;;;;;;;4.00;4.00;;;;;;;;2773105;51;8804;-70
2021/09/13 08:32:16;;;;;;;;;3.67;3.00;;;;;;;;2773095;51;8778;-70
2021/09/13 08:34:41;;;;;;;;;3.33;3.00;;;;;;;;2773171;51;8787;-71
2021/09/13 08:37:07;;;;;;;;;3.33;3.33;;;;;;;;2773042;51;9464;-73
2021/09/13 08:39:32;;;;;;;;;3.00;3.00;;;;;;;;2773098;51;8779;-69
2021/09/13 08:41:59;;;;;;;;;3.00;2.33;;;;;;;;2773158;51;8758;-69
2021/09/13 08:44:25;;;;;;;;;4.00;3.00;;;;;;;;2773244;51;8792;-68
2021/09/13 08:46:59;;;;;;;;;2.00;2.00;;;;;;;;2772998;51;8795;-66
2021/09/13 08:49:30;;;;;;;;;2.50;2.50;;;;;;;;2773641;51;8771;-71
2021/09/13 08:51:56;;;;;;;;;2.00;2.00;;;;;;;;2773350;51;8759;-70
2021/09/13 08:54:25;;;;;;;;;1.50;1.50;;;;;;;;2772949;51;8783;-70
2021/09/13 08:56:56;;;;;;;;;3.25;1.75;;;;;;;;2773032;51;8877;-71
2021/09/13 08:59:24;;;;;;;;;1.75;1.25;;;;;;;;2773349;51;9035;-71
2021/09/13 09:01:54;;;;;;;;;4.00;4.00;;;;;;;;2773238;51;8751;-68
2021/09/13 09:04:20;;;;;;;;;3.50;3.00;;;;;;;;2773060;51;8770;-66
2021/09/13 09:06:46;;;;;;;;;3.75;3.75;;;;;;;;2772882;51;8797;-68
2021/09/13 09:09:13;;;;;;;;;2.00;2.00;;;;;;;;2773497;51;9391;-68
2021/09/13 09:11:59;;;;;;;;;3.50;3.50;;;;;;;;2773149;51;8779;-72
2021/09/13 09:14:42;;;;;;;;;5.50;5.00;;;;;;;;2773279;51;8747;-68
2021/09/13 09:17:10;;;;;;;;;0.50;0.50;;;;;;;;2772433;51;8893;-68
2021/09/13 09:19:37;;;;;;;;;4.75;4.00;;;;;;;;2772583;51;9676;-69
2021/09/13 09:22:19;;;;;;;;;5.50;4.25;;;;;;;;2772527;51;10055;-69
2021/09/13 09:24:45;;;;;;;;;5.75;5.50;;;;;;;;2772899;51;9412;-69
2021/09/13 09:27:11;;;;;;;;;6.00;5.75;;;;;;;;2773009;51;8783;-68
2021/09/13 09:29:37;;;;;;;;;6.00;5.50;;;;;;;;2767171;51;9798;-70
2021/09/13 09:32:03;;;;;;;;;6.50;4.50;;;;;;;;2766807;51;8777;-70
2021/09/13 09:34:31;;;;;;;;;5.25;5.25;;;;;;;;2769043;51;9981;-69
2021/09/13 09:37:00;;;;;;;;;5.60;5.60;;;;;;;;2773370;51;8765;-68
2021/09/13 09:39:29;;;;;;;;;7.60;7.00;;;;;;;;2774152;51;8769;-66
2021/09/13 09:41:56;;;;;;;;;7.40;6.40;;;;;;;;2773714;51;8793;-67
2021/09/13 09:44:22;;;;;;;;;6.25;5.50;;;;;;;;2773719;51;8801;-70
2021/09/13 09:46:48;;;;;;;;;5.25;5.25;;;;;;;;2773739;51;8776;-70
2021/09/13 09:49:15;;;;;;;;;6.00;6.00;;;;;;;;2774028;51;8777;-72
2021/09/13 09:51:51;;;;;;;;;6.80;5.00;;;;;;;;2774046;51;8765;-68
2021/09/13 09:54:18;;;;;;;;;5.20;5.20;;;;;;;;2769435;51;9799;-76
2021/09/13 09:56:45;;;;;;;;;6.00;6.00;;;;;;;;2768503;51;8786;-67
2021/09/13 09:59:12;;;;;;;;;6.40;6.40;;;;;;;;2767309;51;9695;-69
2021/09/13 10:01:41;;;;;;;;;6.00;6.00;;;;;;;;2767941;51;8777;-67
2021/09/13 10:04:13;;;;;;;;;5.00;3.00;;;;;;;;2767540;51;8789;-67
2021/09/13 10:06:40;;;;;;;;;4.00;4.00;;;;;;;;2767898;51;8781;-68
2021/09/13 10:09:06;;;;;;;;;5.80;5.80;;;;;;;;2767606;51;8760;-68
2021/09/13 10:11:31;;;;;;;;;8.25;7.25;;;;;;;;2766888;51;8769;-69
2021/09/13 10:13:57;;;;;;;;;6.50;5.75;;;;;;;;2767406;51;8777;-67
2021/09/13 10:16:23;;;;;;;;;4.25;4.25;;;;;;;;2767565;51;8798;-66
2021/09/13 10:18:48;;;;;;;;;5.00;5.00;;;;;;;;2767376;51;8766;-68
2021/09/13 10:21:15;;;;;;;;;5.25;5.25;;;;;;;;2767472;51;8766;-67
2021/09/13 10:23:41;;;;;;;;;5.60;5.20;;;;;;;;2767403;51;8773;-64
2021/09/13 10:26:06;;;;;;;;;4.00;4.00;;;;;;;;2767439;51;8773;-69
2021/09/13 10:28:32;;;;;;;;;3.00;3.00;;;;;;;;2770181;51;8759;-68
2021/09/13 10:30:58;;;;;;;;;3.00;3.00;;;;;;;;2774063;51;8857;-67
2021/09/13 10:33:23;;;;;;;;;6.00;5.50;;;;;;;;2773564;51;8850;-68
2021/09/13 10:35:53;;;;;;;;;6.25;6.25;;;;;;;;2773553;51;8763;-69
2021/09/13 10:38:37;;;;;;;;;3.60;3.60;;;;;;;;2773602;51;8755;-68
2021/09/13 10:41:03;;;;;;;;;2.80;2.80;;;;;;;;2773586;51;8755;-69
2021/09/13 10:43:29;;;;;;;;;9.00;6.25;;;;;;;;2773649;51;8852;-68
2021/09/13 10:45:54;;;;;;;;;7.25;7.25;;;;;;;;2773444;51;8771;-68
2021/09/13 10:48:21;;;;;;;;;6.00;6.00;;;;;;;;2773223;51;8755;-68
2021/09/13 10:50:46;;;;;;;;;9.00;8.20;;;;;;;;2772936;51;8788;-75
2021/09/13 10:53:18;;;;;;;;;6.00;5.50;;;;;;;;2773266;51;8775;-75
2021/09/13 10:55:44;;;;;;;;;5.80;5.80;;;;;;;;2773316;51;8766;-74
2021/09/13 10:58:14;;;;;;;;;4.00;4.00;;;;;;;;2774098;51;8770;-73
2021/09/13 11:00:42;;;;;;;;;2.00;2.00;;;;;;;;2773613;51;10463;-75
2021/09/13 11:08:39;;;;;;;;;6.80;6.80;;;;;;;;2779509;51;9263;-72
2021/09/13 11:11:09;;;;;;;;;8.80;8.80;;;;;;;;2779852;51;8766;-73
2021/09/13 11:13:35;;;;;;;;;9.00;9.00;;;;;;;;2779508;51;8767;-73
2021/09/13 11:16:01;;;;;;;;;8.80;8.80;;;;;;;;2779195;51;8802;-72
2021/09/13 11:18:31;;;;;;;;;7.75;6.75;;;;;;;;2779628;51;9419;-73
2021/09/13 11:21:12;;;;;;;;;5.00;5.00;;;;;;;;2779625;51;8770;-74
2021/09/13 11:23:38;;;;;;;;;3.80;3.80;;;;;;;;2779556;51;8818;-74
2021/09/13 11:26:04;;;;;;;;;5.00;5.00;;;;;;;;2779327;51;9359;-73
2021/09/13 11:28:29;;;;;;;;;3.00;3.00;;;;;;;;2776425;51;8891;-74
2021/09/13 11:30:55;;;;;;;;;5.50;5.00;;;;;;;;2773321;51;8757;-74
2021/09/13 11:33:20;;;;;;;;;2.00;2.00;;;;;;;;2772989;51;9446;-74
2021/09/13 11:35:46;;;;;;;;;5.00;5.00;;;;;;;;2773236;51;8765;-74
2021/09/13 11:38:12;;;;;;;;;6.25;6.25;;;;;;;;2773566;51;8777;-74
2021/09/13 11:40:37;;;;;;;;;3.75;3.75;;;;;;;;2773457;51;8926;-75
2021/09/13 11:43:09;;;;;;;;;9.00;9.00;;;;;;;;2773406;51;8788;-74
2021/09/13 11:45:35;;;;;;;;;5.20;5.20;;;;;;;;2773257;51;8893;-73
2021/09/13 11:48:05;;;;;;;;;10.75;10.75;;;;;;;;2773572;51;8781;-74
2021/09/13 11:50:30;;;;;;;;;8.00;8.00;;;;;;;;2773833;51;8765;-73
2021/09/13 11:52:56;;;;;;;;;1.50;1.50;;;;;;;;2773933;51;8809;-74
2021/09/13 11:55:24;;;;;;;;;6.75;6.75;;;;;;;;2773596;51;8773;-74
2021/09/13 11:57:54;;;;;;;;;6.60;6.60;;;;;;;;2773427;51;8777;-74
2021/09/13 12:00:24;;;;;;;;;6.20;5.80;;;;;;;;2773435;51;8777;-73
2021/09/13 12:02:51;;;;;;;;;7.20;7.00;;;;;;;;2773327;51;8788;-73
2021/09/13 12:05:22;;;;;;;;;4.40;4.40;;;;;;;;2773479;51;8823;-74
2021/09/13 12:07:48;;;;;;;;;4.60;3.40;;;;;;;;2773324;51;8769;-73
2021/09/13 12:10:16;;;;;;;;;3.60;3.60;;;;;;;;2773121;51;8854;-75
2021/09/13 12:12:47;;;;;;;;;1.40;1.40;;;;;;;;2773142;51;8785;-74
2021/09/13 12:15:13;;;;;;;;;2.80;2.00;;;;;;;;2772962;51;8784;-76
2021/09/13 12:17:41;;;;;;;;;4.00;4.00;;;;;;;;2772881;51;9832;-78
2021/09/13 12:20:10;;;;;;;;;3.00;3.00;;;;;;;;2772937;51;8778;-74
2021/09/13 12:22:36;;;;;;;;;3.00;3.00;;;;;;;;2773561;51;8767;-72
2021/09/13 12:25:16;;;;;;;;;4.00;4.00;;;;;;;;2769549;51;9865;-79
2021/09/13 12:27:43;;;;;;;;;3.40;3.40;;;;;;;;2768177;51;10527;-82
2021/09/13 12:30:15;;;;;;;;;5.00;5.00;;;;;;;;2772674;51;8775;-75
2021/09/13 12:32:47;;;;;;;;;4.20;3.20;;;;;;;;2773769;51;8840;-75
2021/09/13 12:35:13;;;;;;;;;4.20;3.00;;;;;;;;2772673;51;8785;-74
2021/09/13 12:37:39;;;;;;;;;3.33;3.00;;;;;;;;2773175;51;8767;-73
2021/09/13 12:40:06;;;;;;;;;1.50;1.00;;;;;;;;2773493;51;8780;-73
2021/09/13 12:42:32;;;;;;;;;4.25;3.50;;;;;;;;2773257;51;8767;-73
2021/09/13 12:45:01;;;;;;;;;2.75;2.75;;;;;;;;2773083;51;8787;-76
2021/09/13 12:47:27;;;;;;;;;3.80;2.40;;;;;;;;2773434;51;8815;-74
2021/09/13 12:49:53;;;;;;;;;1.00;1.00;;;;;;;;2773550;51;8909;-78
2021/09/13 12:52:19;;;;;;;;;1.00;1.00;;;;;;;;2773422;51;8859;-76
2021/09/13 12:54:45;;;;;;;;;1.00;1.00;;;;;;;;2773254;51;8791;-75
2021/09/13 12:57:11;;;;;;;;;2.67;2.67;;;;;;;;2772900;51;8865;-78
2021/09/13 12:59:36;;;;;;;;;0.67;0.67;;;;;;;;2772716;51;9435;-76
2021/09/13 13:02:15;;;;;;;;;1.00;1.00;;;;;;;;2772693;51;8774;-75
2021/09/13 13:04:41;;;;;;;;;5.25;2.50;;;;;;;;2776291;51;10089;-74
2021/09/13 13:07:11;;;;;;;;;1.00;1.00;;;;;;;;2779370;51;8760;-73
2021/09/13 13:09:36;;;;;;;;;2.60;1.40;;;;;;;;2772868;51;9785;-81
2021/09/13 13:12:02;;;;;;;;;2.00;0.00;;;;;;;;2774431;51;9465;-76
2021/09/13 13:14:28;;;;;;;;;3.50;3.50;;;;;;;;2773318;51;9870;-75
2021/09/13 13:16:53;;;;;;;;;4.00;3.00;;;;;;;;2774197;51;8778;-76
2021/09/13 13:19:19;;;;;;;;;2.25;2.25;;;;;;;;2774282;51;8780;-80
2021/09/13 13:21:46;;;;;;;;;2.00;2.00;;;;;;;;2773718;51;9414;-79
2021/09/13 13:24:13;;;;;;;;;4.20;2.80;;;;;;;;2773309;51;9889;-77
2021/09/13 13:26:39;;;;;;;;;3.00;2.00;;;;;;;;2774167;51;8771;-78
2021/09/13 13:29:06;;;;;;;;;3.25;3.00;;;;;;;;2770190;51;8766;-76
2021/09/13 13:31:32;;;;;;;;;0.00;0.00;;;;;;;;2768377;51;8766;-76
2021/09/13 13:33:57;;;;;;;;;2.00;2.00;;;;;;;;2767718;51;8918;-76
2021/09/13 13:36:24;;;;;;;;;2.33;2.33;;;;;;;;2767167;51;10113;-77
2021/09/13 13:38:50;;;;;;;;;2.75;2.75;;;;;;;;2768034;51;8773;-77
2021/09/13 13:41:16;;;;;;;;;1.00;1.00;;;;;;;;2766945;51;9623;-80
2021/09/13 13:43:42;;;;;;;;;2.25;2.25;;;;;;;;2767741;51;8776;-82
2021/09/13 13:46:08;;;;;;;;;1.33;1.33;;;;;;;;2767625;51;8777;-78
2021/09/13 13:48:34;;;;;;;;;1.00;1.00;;;;;;;;2767588;51;8769;-82
2021/09/13 13:51:00;;;;;;;;;0.00;0.00;;;;;;;;2767520;51;8762;-76
2021/09/13 13:53:25;;;;;;;;;1.33;1.33;;;;;;;;2767997;51;8813;-77
2021/09/13 13:55:51;;;;;;;;;2.33;1.67;;;;;;;;2767717;51;8780;-76
2021/09/13 13:58:16;;;;;;;;;1.67;1.67;;;;;;;;2767707;51;8904;-76
2021/09/13 14:00:42;;;;;;;;;0.33;0.33;;;;;;;;2767742;51;8757;-78
2021/09/13 14:03:08;;;;;;;;;1.00;1.00;;;;;;;;2767479;51;8872;-76
2021/09/13 14:05:33;;;;;;;;;2.00;2.00;;;;;;;;2767546;51;8805;-77
2021/09/13 14:08:00;;;;;;;;;1.00;1.00;;;;;;;;2767744;51;8889;-77
2021/09/13 14:10:26;;;;;;;;;1.00;1.00;;;;;;;;2767641;51;8785;-78
2021/09/13 14:12:52;;;;;;;;;2.25;1.00;;;;;;;;2767798;51;8765;-88
2021/09/13 14:15:18;;;;;;;;;1.67;0.33;;;;;;;;2768182;51;8863;-78
2021/09/13 14:17:44;;;;;;;;;1.00;1.00;;;;;;;;2768220;51;8801;-77
2021/09/13 14:20:10;;;;;;;;;1.50;1.50;;;;;;;;2767727;51;8754;-78
2021/09/13 14:22:36;;;;;;;;;1.00;1.00;;;;;;;;2767196;51;8773;-77
2021/09/13 14:25:02;;;;;;;;;1.00;0.50;;;;;;;;2767363;51;11671;-75
2021/09/13 14:27:28;;;;;;;;;1.50;0.00;;;;;;;;2768391;51;8781;-75
2021/09/13 14:29:54;;;;;;;;;0.00;0.00;;;;;;;;2773516;51;8767;-76
2021/09/13 14:32:20;;;;;;;;;2.00;0.00;;;;;;;;2773688;51;8774;-76
2021/09/13 14:34:46;;;;;;;;;2.50;0.00;;;;;;;;2773528;51;8755;-77
2021/09/13 14:37:11;;;;;;;;;0.00;0.00;;;;;;;;2774543;51;8787;-86
2021/09/13 14:39:38;;;;;;;;;0.00;0.00;;;;;;;;2774938;51;8747;-76
2021/09/13 14:42:03;;;;;;;;;0.50;0.50;;;;;;;;2771775;51;8793;-82
2021/09/13 14:44:29;;;;;;;;;2.00;2.00;;;;;;;;2774415;51;8783;-87
2021/09/13 14:46:55;;;;;;;;;0.67;0.00;;;;;;;;2774440;51;8897;-82
2021/09/13 14:49:20;;;;;;;;;0.67;0.67;;;;;;;;2775296;51;8865;-84
2021/09/13 14:51:46;;;;;;;;;0.00;0.00;;;;;;;;2773443;51;9582;-83
2021/09/13 14:54:12;;;;;;;;;0.00;0.00;;;;;;;;2774118;51;8783;-82
2021/09/13 14:56:38;;;;;;;;;1.67;1.67;;;;;;;;2774141;51;8779;-84
2021/09/13 14:59:04;;;;;;;;;2.33;1.33;;;;;;;;2774295;51;9451;-84